Davenport Center, New York
Current Conditions -  °F | °C
As of 8:15 AM on Friday 26 Dec 2014 (Local Time) from KNY0 Reporting Station
Overcast Overcast  
Wind Chill: 27°   Ceiling: 2700
Heat Index: 36°   Visibility: 10mi
Dew Point: 27°   Wind: 13mph
Humidity: 71%   Direction: 280°W
Pressure: 30.17"   Gusts: NA
Location:  42.45°N, 74.92°W
Report Text: KNY0 261315Z AUTO 28011KT 10SM OVC027 02/M03 A3017 RMK AO2 T00201027
Loading
Personal Weather Stations






























Interactive Weather Map New forecast layout! Learn more

10-Day Weather Forecast

Advertisements
Track Severe Weather on mobile